sensor_id;sensor_type;location;lat;lon;timestamp;pressure;altitude;pressure_sealevel;temperature;humidity
71915;BME280;60387;49.994;14.660;2022-11-25T00:01:49;97743.91;;;9.81;65.81
71915;BME280;60387;49.994;14.660;2022-11-25T00:04:22;97737.13;;;9.83;66.02
71915;BME280;60387;49.994;14.660;2022-11-25T00:06:56;97737.91;;;9.84;66.19
71915;BME280;60387;49.994;14.660;2022-11-25T00:09:29;97740.13;;;9.82;66.24
71915;BME280;60387;49.994;14.660;2022-11-25T00:12:02;97732.81;;;9.82;66.23
71915;BME280;60387;49.994;14.660;2022-11-25T00:14:35;97737.19;;;9.78;66.26
71915;BME280;60387;49.994;14.660;2022-11-25T00:17:09;97741.00;;;9.77;66.06
71915;BME280;60387;49.994;14.660;2022-11-25T00:19:42;97742.69;;;9.73;66.32
71915;BME280;60387;49.994;14.660;2022-11-25T00:22:15;97738.41;;;9.72;66.27
71915;BME280;60387;49.994;14.660;2022-11-25T00:24:49;97739.28;;;9.68;65.75
71915;BME280;60387;49.994;14.660;2022-11-25T00:27:22;97737.38;;;9.68;66.48
71915;BME280;60387;49.994;14.660;2022-11-25T00:29:55;97738.75;;;9.66;66.24
71915;BME280;60387;49.994;14.660;2022-11-25T00:32:29;97737.16;;;9.65;66.20
71915;BME280;60387;49.994;14.660;2022-11-25T00:35:02;97743.38;;;9.65;66.12
71915;BME280;60387;49.994;14.660;2022-11-25T00:37:35;97742.34;;;9.61;66.40
71915;BME280;60387;49.994;14.660;2022-11-25T00:40:09;97742.06;;;9.63;66.38
71915;BME280;60387;49.994;14.660;2022-11-25T00:42:43;97747.47;;;9.63;66.46
71915;BME280;60387;49.994;14.660;2022-11-25T00:45:16;97746.28;;;9.69;66.21
71915;BME280;60387;49.994;14.660;2022-11-25T00:47:52;97741.25;;;9.62;66.64
71915;BME280;60387;49.994;14.660;2022-11-25T00:50:25;97745.84;;;9.62;66.18
71915;BME280;60387;49.994;14.660;2022-11-25T00:52:58;97744.25;;;9.61;66.09
71915;BME280;60387;49.994;14.660;2022-11-25T00:55:31;97749.16;;;9.59;66.52
71915;BME280;60387;49.994;14.660;2022-11-25T00:58:05;97757.56;;;9.57;66.14
71915;BME280;60387;49.994;14.660;2022-11-25T01:00:38;97748.63;;;9.57;66.26
71915;BME280;60387;49.994;14.660;2022-11-25T01:03:11;97763.25;;;9.56;66.51
71915;BME280;60387;49.994;14.660;2022-11-25T01:05:44;97747.63;;;9.53;66.37
71915;BME280;60387;49.994;14.660;2022-11-25T01:08:18;97756.00;;;9.51;66.40
71915;BME280;60387;49.994;14.660;2022-11-25T01:11:03;97751.44;;;9.52;66.66
71915;BME280;60387;49.994;14.660;2022-11-25T01:13:37;97760.63;;;9.51;66.73
71915;BME280;60387;49.994;14.660;2022-11-25T01:16:15;97745.81;;;9.48;66.57
71915;BME280;60387;49.994;14.660;2022-11-25T01:18:48;97756.91;;;9.47;66.70
71915;BME280;60387;49.994;14.660;2022-11-25T01:21:23;97745.06;;;9.43;66.77
71915;BME280;60387;49.994;14.660;2022-11-25T01:23:58;97752.59;;;9.46;66.71
71915;BME280;60387;49.994;14.660;2022-11-25T01:26:33;97758.50;;;9.48;66.43
71915;BME280;60387;49.994;14.660;2022-11-25T01:29:12;97761.53;;;9.47;66.89
71915;BME280;60387;49.994;14.660;2022-11-25T01:31:46;97754.78;;;9.44;66.63
71915;BME280;60387;49.994;14.660;2022-11-25T01:34:23;97756.19;;;9.42;66.66
71915;BME280;60387;49.994;14.660;2022-11-25T01:36:57;97754.78;;;9.44;66.74
71915;BME280;60387;49.994;14.660;2022-11-25T01:39:30;97752.38;;;9.43;66.52
71915;BME280;60387;49.994;14.660;2022-11-25T01:42:03;97746.97;;;9.43;66.95
71915;BME280;60387;49.994;14.660;2022-11-25T01:44:38;97737.31;;;9.37;66.81
71915;BME280;60387;49.994;14.660;2022-11-25T01:52:31;97743.97;;;9.44;66.52
71915;BME280;60387;49.994;14.660;2022-11-25T01:55:12;97747.47;;;9.44;66.81
71915;BME280;60387;49.994;14.660;2022-11-25T01:57:49;97743.75;;;9.41;66.90
71915;BME280;60387;49.994;14.660;2022-11-25T02:00:24;97746.97;;;9.43;66.71
71915;BME280;60387;49.994;14.660;2022-11-25T02:02:57;97753.19;;;9.43;66.65
71915;BME280;60387;49.994;14.660;2022-11-25T02:08:11;97740.00;;;9.37;66.28
71915;BME280;60387;49.994;14.660;2022-11-25T02:10:45;97745.06;;;9.43;66.33
71915;BME280;60387;49.994;14.660;2022-11-25T02:13:20;97748.88;;;9.42;66.50
71915;BME280;60387;49.994;14.660;2022-11-25T02:15:53;97743.75;;;9.41;66.23
71915;BME280;60387;49.994;14.660;2022-11-25T02:18:27;97737.53;;;9.40;66.22
71915;BME280;60387;49.994;14.660;2022-11-25T02:21:00;97742.44;;;9.38;66.09
71915;BME280;60387;49.994;14.660;2022-11-25T02:26:10;97740.16;;;9.27;66.50
71915;BME280;60387;49.994;14.660;2022-11-25T02:28:44;97739.06;;;9.28;65.95
71915;BME280;60387;49.994;14.660;2022-11-25T02:31:22;97734.03;;;9.21;66.08
71915;BME280;60387;49.994;14.660;2022-11-25T02:33:56;97735.72;;;9.17;65.91
71915;BME280;60387;49.994;14.660;2022-11-25T02:36:29;97737.09;;;9.15;66.34
71915;BME280;60387;49.994;14.660;2022-11-25T02:39:03;97734.78;;;9.08;66.40
71915;BME280;60387;49.994;14.660;2022-11-25T02:41:40;97730.81;;;9.01;66.29
71915;BME280;60387;49.994;14.660;2022-11-25T02:44:15;97742.47;;;8.96;67.02
71915;BME280;60387;49.994;14.660;2022-11-25T02:46:48;97733.41;;;8.87;67.29
71915;BME280;60387;49.994;14.660;2022-11-25T02:49:21;97738.34;;;8.80;67.10
71915;BME280;60387;49.994;14.660;2022-11-25T02:51:54;97739.31;;;8.71;66.78
71915;BME280;60387;49.994;14.660;2022-11-25T02:54:28;97742.28;;;8.69;67.17
71915;BME280;60387;49.994;14.660;2022-11-25T02:57:01;97739.06;;;8.67;67.00
71915;BME280;60387;49.994;14.660;2022-11-25T02:59:34;97728.03;;;8.64;66.92
71915;BME280;60387;49.994;14.660;2022-11-25T03:02:07;97735.06;;;8.65;67.63
71915;BME280;60387;49.994;14.660;2022-11-25T03:04:41;97740.72;;;8.63;67.24
71915;BME280;60387;49.994;14.660;2022-11-25T03:07:14;97726.50;;;8.58;67.12
71915;BME280;60387;49.994;14.660;2022-11-25T03:09:47;97742.28;;;8.69;67.11
71915;BME280;60387;49.994;14.660;2022-11-25T03:12:20;97742.28;;;8.69;67.16
71915;BME280;60387;49.994;14.660;2022-11-25T03:14:54;97744.47;;;8.67;67.09
71915;BME280;60387;49.994;14.660;2022-11-25T03:17:27;97747.69;;;8.69;67.06
71915;BME280;60387;49.994;14.660;2022-11-25T03:20:00;97743.88;;;8.70;67.30
71915;BME280;60387;49.994;14.660;2022-11-25T03:22:34;97745.81;;;8.70;67.07
71915;BME280;60387;49.994;14.660;2022-11-25T03:25:08;97751.94;;;8.75;67.08
71915;BME280;60387;49.994;14.660;2022-11-25T03:27:42;97756.25;;;8.76;66.86
71915;BME280;60387;49.994;14.660;2022-11-25T03:30:19;97755.44;;;8.76;67.13
71915;BME280;60387;49.994;14.660;2022-11-25T03:32:53;97753.56;;;8.76;67.08
71915;BME280;60387;49.994;14.660;2022-11-25T03:35:26;97755.44;;;8.76;67.21
71915;BME280;60387;49.994;14.660;2022-11-25T03:37:59;97759.22;;;8.75;67.33
71915;BME280;60387;49.994;14.660;2022-11-25T03:40:33;97748.66;;;8.78;66.65
71915;BME280;60387;49.994;14.660;2022-11-25T03:43:06;97751.34;;;8.78;67.20
71915;BME280;60387;49.994;14.660;2022-11-25T03:45:39;97749.47;;;8.79;67.09
71915;BME280;60387;49.994;14.660;2022-11-25T03:48:12;97754.56;;;8.80;66.51
71915;BME280;60387;49.994;14.660;2022-11-25T03:50:47;97754.66;;;8.75;66.84
71915;BME280;60387;49.994;14.660;2022-11-25T03:53:20;97756.81;;;8.73;66.71
71915;BME280;60387;49.994;14.660;2022-11-25T03:55:53;97762.75;;;8.75;66.78
71915;BME280;60387;49.994;14.660;2022-11-25T03:58:27;97761.78;;;8.66;66.75
71915;BME280;60387;49.994;14.660;2022-11-25T04:01:01;97762.31;;;8.63;66.90
71915;BME280;60387;49.994;14.660;2022-11-25T04:03:35;97767.22;;;8.61;66.92
71915;BME280;60387;49.994;14.660;2022-11-25T04:06:08;97778.03;;;8.61;67.38
71915;BME280;60387;49.994;14.660;2022-11-25T04:08:42;97769.13;;;8.61;67.42
71915;BME280;60387;49.994;14.660;2022-11-25T04:11:15;97768.59;;;8.59;67.25
71915;BME280;60387;49.994;14.660;2022-11-25T04:13:49;97756.81;;;8.50;66.91
71915;BME280;60387;49.994;14.660;2022-11-25T04:16:24;97777.00;;;8.57;67.38
71915;BME280;60387;49.994;14.660;2022-11-25T04:18:58;97766.53;;;8.51;67.79
71915;BME280;60387;49.994;14.660;2022-11-25T04:21:31;97765.00;;;8.45;67.24
71915;BME280;60387;49.994;14.660;2022-11-25T04:24:05;97774.09;;;8.49;67.03
71915;BME280;60387;49.994;14.660;2022-11-25T04:26:38;97772.50;;;8.48;67.60
71915;BME280;60387;49.994;14.660;2022-11-25T04:29:12;97764.44;;;8.43;67.34
71915;BME280;60387;49.994;14.660;2022-11-25T04:31:45;97772.25;;;8.44;66.87
71915;BME280;60387;49.994;14.660;2022-11-25T04:34:18;97772.84;;;8.41;67.33
71915;BME280;60387;49.994;14.660;2022-11-25T04:36:52;97781.47;;;8.43;67.39
71915;BME280;60387;49.994;14.660;2022-11-25T04:39:25;97773.69;;;8.37;66.92
71915;BME280;60387;49.994;14.660;2022-11-25T04:41:58;97786.84;;;8.43;67.04
71915;BME280;60387;49.994;14.660;2022-11-25T04:44:31;97773.63;;;8.42;66.96
71915;BME280;60387;49.994;14.660;2022-11-25T04:47:05;97790.88;;;8.46;67.81
71915;BME280;60387;49.994;14.660;2022-11-25T04:49:38;97783.06;;;8.44;67.27
71915;BME280;60387;49.994;14.660;2022-11-25T04:52:11;97782.19;;;8.49;66.97
71915;BME280;60387;49.994;14.660;2022-11-25T04:54:44;97787.56;;;8.54;67.21
71915;BME280;60387;49.994;14.660;2022-11-25T04:57:18;97789.09;;;8.60;67.03
71915;BME280;60387;49.994;14.660;2022-11-25T04:59:51;97786.69;;;8.58;67.27
71915;BME280;60387;49.994;14.660;2022-11-25T05:02:27;97792.16;;;8.53;67.12
71915;BME280;60387;49.994;14.660;2022-11-25T05:05:00;97795.34;;;8.55;67.02
71915;BME280;60387;49.994;14.660;2022-11-25T05:07:33;97796.16;;;8.56;67.38
71915;BME280;60387;49.994;14.660;2022-11-25T05:10:07;97790.53;;;8.52;67.09
71915;BME280;60387;49.994;14.660;2022-11-25T05:12:41;97790.03;;;8.50;67.19
71915;BME280;60387;49.994;14.660;2022-11-25T05:15:14;97801.34;;;8.52;67.18
71915;BME280;60387;49.994;14.660;2022-11-25T05:17:47;97794.69;;;8.45;67.32
71915;BME280;60387;49.994;14.660;2022-11-25T05:20:20;97800.88;;;8.45;66.89
71915;BME280;60387;49.994;14.660;2022-11-25T05:22:54;97804.41;;;8.41;66.94
71915;BME280;60387;49.994;14.660;2022-11-25T05:25:27;97806.34;;;8.40;67.25
71915;BME280;60387;49.994;14.660;2022-11-25T05:28:01;97806.34;;;8.40;67.14
71915;BME280;60387;49.994;14.660;2022-11-25T05:30:34;97803.41;;;8.37;66.95
71915;BME280;60387;49.994;14.660;2022-11-25T05:33:07;97803.94;;;8.34;67.40
71915;BME280;60387;49.994;14.660;2022-11-25T05:35:40;97790.75;;;8.32;67.04
71915;BME280;60387;49.994;14.660;2022-11-25T05:38:14;97803.69;;;8.30;67.06
71915;BME280;60387;49.994;14.660;2022-11-25T05:40:47;97798.88;;;8.27;67.16
71915;BME280;60387;49.994;14.660;2022-11-25T05:43:20;97802.84;;;8.35;66.83
71915;BME280;60387;49.994;14.660;2022-11-25T05:45:53;97799.63;;;8.33;66.63
71915;BME280;60387;49.994;14.660;2022-11-25T05:48:27;97802.91;;;8.30;66.61
71915;BME280;60387;49.994;14.660;2022-11-25T05:51:01;97798.38;;;8.25;66.76
71915;BME280;60387;49.994;14.660;2022-11-25T05:53:35;97797.31;;;8.21;67.01
71915;BME280;60387;49.994;14.660;2022-11-25T05:56:08;97794.13;;;8.14;66.76
71915;BME280;60387;49.994;14.660;2022-11-25T05:58:42;97794.13;;;8.14;66.89
71915;BME280;60387;49.994;14.660;2022-11-25T06:01:16;97802.25;;;8.09;67.08
71915;BME280;60387;49.994;14.660;2022-11-25T06:03:49;97809.59;;;8.04;66.81
71915;BME280;60387;49.994;14.660;2022-11-25T06:06:22;97801.53;;;7.99;66.69
71915;BME280;60387;49.994;14.660;2022-11-25T06:08:56;97809.44;;;7.90;66.72
71915;BME280;60387;49.994;14.660;2022-11-25T06:11:29;97807.84;;;7.84;66.99
71915;BME280;60387;49.994;14.660;2022-11-25T06:14:02;97817.06;;;7.78;66.65
71915;BME280;60387;49.994;14.660;2022-11-25T06:16:35;97812.03;;;7.67;66.97
71915;BME280;60387;49.994;14.660;2022-11-25T06:19:09;97808.00;;;7.64;66.67
71915;BME280;60387;49.994;14.660;2022-11-25T06:21:42;97810.47;;;7.56;66.87
71915;BME280;60387;49.994;14.660;2022-11-25T06:24:15;97816.72;;;7.51;66.74
71915;BME280;60387;49.994;14.660;2022-11-25T06:26:48;97813.50;;;7.44;67.12
71915;BME280;60387;49.994;14.660;2022-11-25T06:29:22;97815.75;;;7.37;67.23
71915;BME280;60387;49.994;14.660;2022-11-25T06:31:55;97826.25;;;7.34;66.99
71915;BME280;60387;49.994;14.660;2022-11-25T06:34:28;97810.69;;;7.26;67.25
71915;BME280;60387;49.994;14.660;2022-11-25T06:37:01;97823.59;;;7.24;66.88
71915;BME280;60387;49.994;14.660;2022-11-25T06:39:35;97820.69;;;7.20;66.98
71915;BME280;60387;49.994;14.660;2022-11-25T06:42:08;97820.63;;;7.25;66.93
71915;BME280;60387;49.994;14.660;2022-11-25T06:44:41;97826.84;;;7.21;66.86
71915;BME280;60387;49.994;14.660;2022-11-25T06:47:14;97836.84;;;7.20;67.28
71915;BME280;60387;49.994;14.660;2022-11-25T06:49:48;97842.75;;;7.17;67.02
71915;BME280;60387;49.994;14.660;2022-11-25T06:52:22;97837.94;;;7.14;67.35
71915;BME280;60387;49.994;14.660;2022-11-25T06:54:55;97844.13;;;7.15;67.01
71915;BME280;60387;49.994;14.660;2022-11-25T06:57:28;97848.72;;;7.14;67.19
71915;BME280;60387;49.994;14.660;2022-11-25T07:00:03;97845.50;;;7.12;67.06
71915;BME280;60387;49.994;14.660;2022-11-25T07:02:36;97847.13;;;7.08;67.20
71915;BME280;60387;49.994;14.660;2022-11-25T07:05:09;97853.84;;;7.11;67.42
71915;BME280;60387;49.994;14.660;2022-11-25T07:07:43;97854.09;;;7.09;67.57
71915;BME280;60387;49.994;14.660;2022-11-25T07:10:16;97862.22;;;6.99;67.76
71915;BME280;60387;49.994;14.660;2022-11-25T07:12:49;97857.94;;;6.98;67.87
71915;BME280;60387;49.994;14.660;2022-11-25T07:15:22;97862.22;;;6.99;68.00
71915;BME280;60387;49.994;14.660;2022-11-25T07:17:56;97863.03;;;7.00;68.20
71915;BME280;60387;49.994;14.660;2022-11-25T07:20:29;97858.44;;;7.00;68.02
71915;BME280;60387;49.994;14.660;2022-11-25T07:23:02;97869.75;;;7.07;68.09
71915;BME280;60387;49.994;14.660;2022-11-25T07:25:35;97872.69;;;7.11;68.44
71915;BME280;60387;49.994;14.660;2022-11-25T07:28:09;97871.34;;;7.13;68.69
71915;BME280;60387;49.994;14.660;2022-11-25T07:30:42;97867.81;;;7.18;68.73
71915;BME280;60387;49.994;14.660;2022-11-25T07:33:15;97873.94;;;7.33;69.12
71915;BME280;60387;49.994;14.660;2022-11-25T07:35:48;97868.75;;;7.47;69.24
71915;BME280;60387;49.994;14.660;2022-11-25T07:38:22;97871.09;;;7.63;68.88
71915;BME280;60387;49.994;14.660;2022-11-25T07:40:55;97876.63;;;7.82;68.32
71915;BME280;60387;49.994;14.660;2022-11-25T07:43:28;97877.56;;;8.01;68.51
71915;BME280;60387;49.994;14.660;2022-11-25T07:46:18;97881.78;;;8.22;68.76
71915;BME280;60387;49.994;14.660;2022-11-25T07:48:52;97880.47;;;8.48;68.25
71915;BME280;60387;49.994;14.660;2022-11-25T07:51:27;97886.78;;;8.67;68.58
71915;BME280;60387;49.994;14.660;2022-11-25T07:54:03;97876.41;;;8.79;67.95
71915;BME280;60387;49.994;14.660;2022-11-25T07:56:39;97887.00;;;8.99;68.33
71915;BME280;60387;49.994;14.660;2022-11-25T07:59:15;97893.56;;;9.16;67.56
71915;BME280;60387;49.994;14.660;2022-11-25T08:01:50;97894.19;;;9.32;67.62
71915;BME280;60387;49.994;14.660;2022-11-25T08:04:24;97889.38;;;9.47;67.04
71915;BME280;60387;49.994;14.660;2022-11-25T08:06:57;97889.91;;;9.67;67.40
71915;BME280;60387;49.994;14.660;2022-11-25T08:09:30;97900.22;;;9.84;67.34
71915;BME280;60387;49.994;14.660;2022-11-25T08:12:04;97896.75;;;10.02;67.20
71915;BME280;60387;49.994;14.660;2022-11-25T08:14:37;97901.28;;;10.25;66.58
71915;BME280;60387;49.994;14.660;2022-11-25T08:17:10;97877.56;;;10.35;66.92
71915;BME280;60387;49.994;14.660;2022-11-25T08:19:43;97893.50;;;10.69;66.72
71915;BME280;60387;49.994;14.660;2022-11-25T08:22:17;97904.59;;;10.86;65.97
71915;BME280;60387;49.994;14.660;2022-11-25T08:24:50;97898.50;;;11.07;65.86
71915;BME280;60387;49.994;14.660;2022-11-25T08:27:23;97891.88;;;11.27;65.55
71915;BME280;60387;49.994;14.660;2022-11-25T08:29:56;97890.06;;;11.49;65.33
71915;BME280;60387;49.994;14.660;2022-11-25T08:32:30;97893.50;;;11.68;64.65
71915;BME280;60387;49.994;14.660;2022-11-25T08:35:04;97907.25;;;11.85;64.50
71915;BME280;60387;49.994;14.660;2022-11-25T08:37:37;97892.94;;;12.07;64.56
71915;BME280;60387;49.994;14.660;2022-11-25T08:40:11;97890.72;;;12.31;64.74
71915;BME280;60387;49.994;14.660;2022-11-25T08:42:45;97902.91;;;12.55;63.00
71915;BME280;60387;49.994;14.660;2022-11-25T08:45:18;97892.31;;;12.76;63.50
71915;BME280;60387;49.994;14.660;2022-11-25T08:47:51;97892.44;;;12.92;63.43
71915;BME280;60387;49.994;14.660;2022-11-25T08:50:24;97900.53;;;13.06;62.62
71915;BME280;60387;49.994;14.660;2022-11-25T08:52:58;97890.50;;;13.15;62.51
71915;BME280;60387;49.994;14.660;2022-11-25T08:55:31;97899.50;;;13.24;62.53
71915;BME280;60387;49.994;14.660;2022-11-25T08:58:05;97902.41;;;13.36;62.89
71915;BME280;60387;49.994;14.660;2022-11-25T09:00:39;97905.66;;;13.46;62.01
71915;BME280;60387;49.994;14.660;2022-11-25T09:03:13;97903.59;;;13.52;58.56
71915;BME280;60387;49.994;14.660;2022-11-25T09:05:46;97913.19;;;13.49;58.74
71915;BME280;60387;49.994;14.660;2022-11-25T09:08:19;97913.69;;;13.51;59.26
71915;BME280;60387;49.994;14.660;2022-11-25T09:10:53;97922.34;;;13.53;57.75
71915;BME280;60387;49.994;14.660;2022-11-25T09:13:26;97917.13;;;13.35;55.41
71915;BME280;60387;49.994;14.660;2022-11-25T09:16:00;97913.66;;;13.12;56.61
71915;BME280;60387;49.994;14.660;2022-11-25T09:18:33;97914.31;;;13.09;57.80
71915;BME280;60387;49.994;14.660;2022-11-25T09:21:08;97918.66;;;13.19;58.45
71915;BME280;60387;49.994;14.660;2022-11-25T09:23:42;97910.84;;;13.26;56.26
71915;BME280;60387;49.994;14.660;2022-11-25T09:26:22;97910.56;;;13.27;56.85
71915;BME280;60387;49.994;14.660;2022-11-25T09:28:56;97917.13;;;13.35;56.99
71915;BME280;60387;49.994;14.660;2022-11-25T09:31:30;97915.22;;;13.35;55.08
71915;BME280;60387;49.994;14.660;2022-11-25T09:34:03;97920.19;;;13.33;56.59
71915;BME280;60387;49.994;14.660;2022-11-25T09:36:36;97918.22;;;13.25;56.64
71915;BME280;60387;49.994;14.660;2022-11-25T09:39:09;97923.13;;;13.15;56.38
71915;BME280;60387;49.994;14.660;2022-11-25T09:55:25;97923.59;;;12.43;57.22
71915;BME280;60387;49.994;14.660;2022-11-25T09:58:28;97922.72;;;12.34;57.67
71915;BME280;60387;49.994;14.660;2022-11-25T10:01:06;97919.53;;;12.18;57.15
71915;BME280;60387;49.994;14.660;2022-11-25T10:04:09;97923.63;;;11.94;57.51
71915;BME280;60387;49.994;14.660;2022-11-25T10:06:49;97915.22;;;11.82;57.78
71915;BME280;60387;49.994;14.660;2022-11-25T10:09:27;97910.50;;;11.60;57.18
71915;BME280;60387;49.994;14.660;2022-11-25T10:12:12;97901.44;;;11.38;58.15
71915;BME280;60387;49.994;14.660;2022-11-25T10:14:57;97906.16;;;11.32;58.99
71915;BME280;60387;49.994;14.660;2022-11-25T10:17:51;97903.13;;;11.34;59.76
71915;BME280;60387;49.994;14.660;2022-11-25T10:20:35;97914.47;;;11.49;59.79
71915;BME280;60387;49.994;14.660;2022-11-25T10:23:15;97914.41;;;11.68;59.76
71915;BME280;60387;49.994;14.660;2022-11-25T10:25:56;97919.41;;;11.88;59.49
71915;BME280;60387;49.994;14.660;2022-11-25T10:28:32;97919.84;;;12.17;59.18
71915;BME280;60387;49.994;14.660;2022-11-25T10:31:31;97925.06;;;12.49;58.77
71915;BME280;60387;49.994;14.660;2022-11-25T10:34:18;97921.72;;;12.73;57.59
71915;BME280;60387;49.994;14.660;2022-11-25T10:36:57;97927.88;;;12.87;57.06
71915;BME280;60387;49.994;14.660;2022-11-25T10:39:33;97928.16;;;12.99;56.71
71915;BME280;60387;49.994;14.660;2022-11-25T10:42:14;97926.97;;;13.14;57.69
71915;BME280;60387;49.994;14.660;2022-11-25T10:44:50;97921.28;;;13.32;57.04
71915;BME280;60387;49.994;14.660;2022-11-25T10:47:34;97932.09;;;13.54;57.33
71915;BME280;60387;49.994;14.660;2022-11-25T10:52:58;97933.50;;;13.99;55.59
71915;BME280;60387;49.994;14.660;2022-11-25T10:55:32;97927.13;;;14.12;55.41
71915;BME280;60387;49.994;14.660;2022-11-25T10:58:33;97925.84;;;14.18;55.71
71915;BME280;60387;49.994;14.660;2022-11-25T11:01:36;97929.72;;;14.34;55.17
71915;BME280;60387;49.994;14.660;2022-11-25T11:04:12;97932.16;;;14.44;53.33
71915;BME280;60387;49.994;14.660;2022-11-25T11:06:48;97934.22;;;14.47;54.06
71915;BME280;60387;49.994;14.660;2022-11-25T11:14:53;97936.00;;;14.52;55.05
71915;BME280;60387;49.994;14.660;2022-11-25T11:17:32;97938.88;;;14.55;55.64
71915;BME280;60387;49.994;14.660;2022-11-25T11:22:56;97931.78;;;14.80;53.76
71915;BME280;60387;49.994;14.660;2022-11-25T11:25:32;97933.41;;;14.89;54.14
71915;BME280;60387;49.994;14.660;2022-11-25T11:50:32;97919.31;;;16.28;51.67
71915;BME280;60387;49.994;14.660;2022-11-25T12:04:28;97924.53;;;16.42;52.33
71915;BME280;60387;49.994;14.660;2022-11-25T12:10:25;97922.66;;;16.34;52.68
71915;BME280;60387;49.994;14.660;2022-11-25T12:13:19;97921.38;;;16.31;52.72
71915;BME280;60387;49.994;14.660;2022-11-25T12:18:51;97922.50;;;16.30;52.80
71915;BME280;60387;49.994;14.660;2022-11-25T12:27:04;97915.41;;;16.38;52.08
71915;BME280;60387;49.994;14.660;2022-11-25T12:29:49;97920.88;;;16.38;52.35
71915;BME280;60387;49.994;14.660;2022-11-25T12:37:46;97919.88;;;16.42;52.17
71915;BME280;60387;49.994;14.660;2022-11-25T12:46:37;97908.13;;;16.42;52.65
71915;BME280;60387;49.994;14.660;2022-11-25T12:49:40;97916.34;;;16.42;53.03
71915;BME280;60387;49.994;14.660;2022-11-25T12:55:22;97914.91;;;16.36;51.08
71915;BME280;60387;49.994;14.660;2022-11-25T12:58:19;97923.50;;;16.26;52.25
71915;BME280;60387;49.994;14.660;2022-11-25T13:15:26;97917.72;;;15.99;53.29
71915;BME280;60387;49.994;14.660;2022-11-25T13:18:06;97912.06;;;15.83;52.62
71915;BME280;60387;49.994;14.660;2022-11-25T13:25:53;97918.06;;;15.22;53.89
71915;BME280;60387;49.994;14.660;2022-11-25T13:28:45;97902.06;;;15.04;53.91
71915;BME280;60387;49.994;14.660;2022-11-25T13:36:50;97895.06;;;14.77;53.18
71915;BME280;60387;49.994;14.660;2022-11-25T13:39:36;97902.09;;;14.78;52.80
71915;BME280;60387;49.994;14.660;2022-11-25T13:42:25;97898.78;;;14.64;53.02
71915;BME280;60387;49.994;14.660;2022-11-25T13:44:59;97899.44;;;14.61;53.34
71915;BME280;60387;49.994;14.660;2022-11-25T13:47:47;97905.19;;;14.60;53.68
71915;BME280;60387;49.994;14.660;2022-11-25T13:50:22;97912.09;;;14.57;53.86
71915;BME280;60387;49.994;14.660;2022-11-25T13:55:37;97913.88;;;14.45;53.82
71915;BME280;60387;49.994;14.660;2022-11-25T14:03:57;97907.94;;;14.34;53.76
71915;BME280;60387;49.994;14.660;2022-11-25T14:06:36;97918.19;;;14.29;53.48
71915;BME280;60387;49.994;14.660;2022-11-25T14:12:16;97914.78;;;14.06;53.67
71915;BME280;60387;49.994;14.660;2022-11-25T14:20:49;97906.88;;;13.79;54.45
71915;BME280;60387;49.994;14.660;2022-11-25T14:26:12;97912.91;;;13.59;54.51
71915;BME280;60387;49.994;14.660;2022-11-25T14:28:57;97910.16;;;13.51;54.37
71915;BME280;60387;49.994;14.660;2022-11-25T14:31:40;97914.28;;;13.40;55.01
71915;BME280;60387;49.994;14.660;2022-11-25T14:34:21;97916.47;;;13.29;54.92
71915;BME280;60387;49.994;14.660;2022-11-25T14:39:55;97926.13;;;13.05;55.27
71915;BME280;60387;49.994;14.660;2022-11-25T14:42:39;97925.06;;;12.92;55.49
71915;BME280;60387;49.994;14.660;2022-11-25T14:47:54;97935.44;;;12.69;56.31
71915;BME280;60387;49.994;14.660;2022-11-25T14:50:27;97938.41;;;12.59;56.02
71915;BME280;60387;49.994;14.660;2022-11-25T14:53:05;97945.50;;;12.46;56.02
71915;BME280;60387;49.994;14.660;2022-11-25T14:55:38;97940.31;;;12.36;56.50
71915;BME280;60387;49.994;14.660;2022-11-25T14:58:12;97948.88;;;12.30;56.21
71915;BME280;60387;49.994;14.660;2022-11-25T15:00:59;97948.47;;;12.23;56.53
71915;BME280;60387;49.994;14.660;2022-11-25T15:03:33;97944.38;;;12.12;56.52
71915;BME280;60387;49.994;14.660;2022-11-25T15:06:11;97944.91;;;12.00;56.80
71915;BME280;60387;49.994;14.660;2022-11-25T15:08:53;97953.19;;;11.95;56.41
71915;BME280;60387;49.994;14.660;2022-11-25T15:11:32;97955.00;;;11.86;56.95
71915;BME280;60387;49.994;14.660;2022-11-25T15:14:17;97956.50;;;11.79;57.09
71915;BME280;60387;49.994;14.660;2022-11-25T15:16:55;97962.44;;;11.67;57.11
71915;BME280;60387;49.994;14.660;2022-11-25T15:19:31;97962.06;;;11.60;57.13
71915;BME280;60387;49.994;14.660;2022-11-25T15:22:05;97968.16;;;11.52;56.97
71915;BME280;60387;49.994;14.660;2022-11-25T15:24:44;97968.03;;;11.44;57.44
71915;BME280;60387;49.994;14.660;2022-11-25T15:27:21;97976.66;;;11.32;57.27
71915;BME280;60387;49.994;14.660;2022-11-25T15:29:55;97972.53;;;11.21;57.60
71915;BME280;60387;49.994;14.660;2022-11-25T15:32:33;97969.41;;;11.14;57.45
71915;BME280;60387;49.994;14.660;2022-11-25T15:35:07;97978.81;;;11.03;57.56
71915;BME280;60387;49.994;14.660;2022-11-25T15:37:48;97986.31;;;10.93;57.89
71915;BME280;60387;49.994;14.660;2022-11-25T15:43:05;97989.66;;;10.71;57.52
71915;BME280;60387;49.994;14.660;2022-11-25T15:45:43;97983.88;;;10.59;58.17
71915;BME280;60387;49.994;14.660;2022-11-25T15:48:28;97985.94;;;10.49;58.29
71915;BME280;60387;49.994;14.660;2022-11-25T15:51:37;97987.47;;;10.36;58.61
71915;BME280;60387;49.994;14.660;2022-11-25T15:54:46;97982.50;;;10.25;59.09
71915;BME280;60387;49.994;14.660;2022-11-25T15:57:36;97981.63;;;10.11;58.86
71915;BME280;60387;49.994;14.660;2022-11-25T16:00:19;97981.72;;;10.01;59.22
71915;BME280;60387;49.994;14.660;2022-11-25T16:02:54;97990.69;;;9.96;59.18
71915;BME280;60387;49.994;14.660;2022-11-25T16:05:30;98000.28;;;9.89;59.32
71915;BME280;60387;49.994;14.660;2022-11-25T16:08:29;97992.22;;;9.84;58.92
71915;BME280;60387;49.994;14.660;2022-11-25T16:13:45;97982.13;;;9.71;59.60